RYR4899 LIBD-LDDU
Flight info
| Callsign | RYR4899 |
|---|---|
| Flight time | N/A |
| Altitude | 16000 |
| Route | BANAV DCT AIOSA |
| Aircraft | B38M/M-SDE1FGHILORVWXY/HB1 |
Departure
| Time | 2026-04-29 15:31 |
|---|---|
| Airport | Bari Karol Wojtyła International Airport (LIBD) |
Arrival
| Time | N/A |
|---|---|
| Airport | Dubrovnik Ruđer Bošković Airport (LDDU) |
| Time | Latitude | Longitude | Altitude | Speed | Heading |
|---|---|---|---|---|---|
| 2026-04-29 15:05 | 41.13679 | 16.76705 | 168 ft | 0 kts | 194° |
| 2026-04-29 15:26 | 41.13664 | 16.76699 | 142 ft | 3 kts | 208° |
| 2026-04-29 15:26 | 41.13663 | 16.76691 | 142 ft | 1 kts | 279° |
| 2026-04-29 15:26 | 41.13678 | 16.76684 | 141 ft | 8 kts | 339° |
| 2026-04-29 15:27 | 41.13735 | 16.76595 | 140 ft | 16 kts | 287° |
| 2026-04-29 15:27 | 41.13784 | 16.76477 | 143 ft | 16 kts | 252° |
| 2026-04-29 15:27 | 41.13745 | 16.76340 | 146 ft | 16 kts | 249° |
| 2026-04-29 15:27 | 41.13708 | 16.76212 | 152 ft | 14 kts | 249° |
| 2026-04-29 15:28 | 41.13672 | 16.76089 | 155 ft | 15 kts | 249° |
| 2026-04-29 15:28 | 41.13648 | 16.76006 | 158 ft | 14 kts | 249° |
| 2026-04-29 15:28 | 41.13606 | 16.75845 | 166 ft | 16 kts | 251° |
| 2026-04-29 15:28 | 41.13552 | 16.75659 | 169 ft | 28 kts | 248° |
| 2026-04-29 15:29 | 41.13477 | 16.75402 | 173 ft | 31 kts | 249° |
| 2026-04-29 15:29 | 41.13350 | 16.74911 | 182 ft | 16 kts | 270° |
| 2026-04-29 15:30 | 41.13443 | 16.74701 | 192 ft | 10 kts | 330° |
| 2026-04-29 15:30 | 41.13474 | 16.74726 | 188 ft | 0 kts | 71° |
| 2026-04-29 15:30 | 41.13475 | 16.74726 | 188 ft | 0 kts | 71° |
| 2026-04-29 15:31 | 41.13507 | 16.74845 | 181 ft | 43 kts | 69° |
| 2026-04-29 15:31 | 41.13696 | 16.75505 | 171 ft | 107 kts | 69° |
| 2026-04-29 15:31 | 41.14019 | 16.76635 | 237 ft | 146 kts | 69° |
| 2026-04-29 15:31 | 41.14351 | 16.77875 | 914 ft | 136 kts | 71° |
| 2026-04-29 15:32 | 41.14690 | 16.79071 | 1397 ft | 145 kts | 71° |
| 2026-04-29 15:32 | 41.15057 | 16.80361 | 1842 ft | 154 kts | 71° |
| 2026-04-29 15:32 | 41.15315 | 16.81274 | 2138 ft | 166 kts | 71° |
| 2026-04-29 15:32 | 41.15900 | 16.83350 | 2713 ft | 194 kts | 70° |
| 2026-04-29 15:33 | 41.16283 | 16.84481 | 2946 ft | 213 kts | 59° |
| 2026-04-29 15:33 | 41.18033 | 16.86042 | 3355 ft | 252 kts | 16° |
| 2026-04-29 15:33 | 41.19767 | 16.86778 | 3913 ft | 271 kts | 19° |
| 2026-04-29 15:33 | 41.21561 | 16.87684 | 4743 ft | 276 kts | 19° |
| 2026-04-29 15:34 | 41.23354 | 16.88601 | 5664 ft | 279 kts | 19° |
| 2026-04-29 15:34 | 41.24578 | 16.89232 | 6305 ft | 279 kts | 19° |
| 2026-04-29 15:34 | 41.26396 | 16.90169 | 7184 ft | 282 kts | 19° |
| 2026-04-29 15:34 | 41.28229 | 16.91116 | 8031 ft | 285 kts | 18° |
| 2026-04-29 15:35 | 41.30065 | 16.92065 | 8888 ft | 288 kts | 18° |
| 2026-04-29 15:35 | 41.31937 | 16.93033 | 9741 ft | 292 kts | 18° |
| 2026-04-29 15:35 | 41.33846 | 16.94020 | 10426 ft | 301 kts | 18° |
| 2026-04-29 15:35 | 41.35861 | 16.95063 | 10821 ft | 320 kts | 19° |
| 2026-04-29 15:36 | 41.37982 | 16.96167 | 11344 ft | 333 kts | 19° |
| 2026-04-29 15:36 | 41.40157 | 16.97298 | 12143 ft | 337 kts | 19° |
| 2026-04-29 15:36 | 41.42357 | 16.98440 | 12997 ft | 341 kts | 19° |
| 2026-04-29 15:36 | 41.44584 | 16.99595 | 13859 ft | 345 kts | 19° |
| 2026-04-29 15:37 | 41.46840 | 17.00766 | 14639 ft | 350 kts | 19° |
| 2026-04-29 15:37 | 41.49122 | 17.01952 | 15431 ft | 354 kts | 19° |
| 2026-04-29 15:37 | 41.51449 | 17.03162 | 15852 ft | 360 kts | 18° |
| 2026-04-29 15:37 | 41.53798 | 17.04385 | 16307 ft | 362 kts | 18° |
| 2026-04-29 15:38 | 41.56143 | 17.05605 | 17145 ft | 365 kts | 18° |
| 2026-04-29 15:38 | 41.58526 | 17.06847 | 17779 ft | 372 kts | 18° |
| 2026-04-29 15:38 | 41.60957 | 17.08115 | 17967 ft | 379 kts | 18° |
| 2026-04-29 15:38 | 41.63437 | 17.09410 | 17968 ft | 392 kts | 18° |
| 2026-04-29 15:39 | 41.65999 | 17.10750 | 17968 ft | 397 kts | 18° |
| 2026-04-29 15:39 | 41.68579 | 17.12100 | 17977 ft | 399 kts | 18° |
| 2026-04-29 15:39 | 41.71170 | 17.13455 | 17992 ft | 399 kts | 18° |
| 2026-04-29 15:39 | 41.73757 | 17.14809 | 18006 ft | 399 kts | 18° |
| 2026-04-29 15:40 | 41.76325 | 17.16155 | 17986 ft | 399 kts | 18° |
| 2026-04-29 15:40 | 41.78905 | 17.17507 | 18007 ft | 399 kts | 18° |
| 2026-04-29 15:40 | 41.81493 | 17.18865 | 18010 ft | 399 kts | 18° |
| 2026-04-29 15:40 | 41.84078 | 17.20223 | 17997 ft | 399 kts | 18° |
| 2026-04-29 15:41 | 41.86664 | 17.21583 | 18008 ft | 399 kts | 18° |
| 2026-04-29 15:41 | 41.89253 | 17.22945 | 17999 ft | 399 kts | 18° |
| 2026-04-29 15:41 | 41.91805 | 17.24289 | 18015 ft | 396 kts | 18° |
| 2026-04-29 15:41 | 41.94325 | 17.25643 | 17829 ft | 385 kts | 19° |
| 2026-04-29 15:42 | 41.96776 | 17.26969 | 17454 ft | 379 kts | 19° |
| 2026-04-29 15:42 | 41.99226 | 17.28293 | 16953 ft | 378 kts | 19° |
| 2026-04-29 15:42 | 42.01658 | 17.29607 | 16514 ft | 375 kts | 19° |
| 2026-04-29 15:42 | 42.04078 | 17.30916 | 16090 ft | 372 kts | 19° |
| 2026-04-29 15:43 | 42.06473 | 17.32212 | 15674 ft | 369 kts | 19° |
| 2026-04-29 15:43 | 42.08850 | 17.33499 | 15258 ft | 367 kts | 19° |
| 2026-04-29 15:43 | 42.11212 | 17.34780 | 14812 ft | 365 kts | 19° |
| 2026-04-29 15:43 | 42.13565 | 17.36056 | 14386 ft | 363 kts | 19° |
| 2026-04-29 15:44 | 42.15873 | 17.37309 | 13976 ft | 361 kts | 19° |
| 2026-04-29 15:44 | 42.16844 | 17.37837 | 13800 ft | 360 kts | 19° |